createdAt,value
2023-02-23T00:01:54.565Z,96632.91
2023-02-23T00:04:21.727Z,96629.44
2023-02-23T00:06:48.329Z,96631.53
2023-02-23T00:09:24.505Z,96620.41
2023-02-23T00:11:53.227Z,96630.16
2023-02-23T00:14:20.354Z,96627.22
2023-02-23T00:16:47.050Z,96629.00
2023-02-23T00:19:17.594Z,96627.66
2023-02-23T00:21:45.455Z,96631.22
2023-02-23T00:24:15.837Z,96632.06
2023-02-23T00:26:42.769Z,96623.34
2023-02-23T00:29:13.885Z,96625.03
2023-02-23T00:31:40.588Z,96632.97
2023-02-23T00:34:07.665Z,96627.19
2023-02-23T00:36:35.632Z,96626.34
2023-02-23T00:39:18.115Z,96627.09
2023-02-23T00:41:48.626Z,96624.25
2023-02-23T00:44:15.954Z,96621.75
2023-02-23T00:46:44.241Z,96619.31
2023-02-23T00:49:12.983Z,96623.53
2023-02-23T00:51:41.463Z,96614.59
2023-02-23T00:54:10.780Z,96614.53
2023-02-23T00:56:38.626Z,96617.78
2023-02-23T00:59:05.302Z,96618.41
2023-02-23T01:01:31.900Z,96621.91
2023-02-23T01:03:58.495Z,96613.34
2023-02-23T01:06:25.128Z,96610.22
2023-02-23T01:08:56.762Z,96615.47
2023-02-23T01:11:28.303Z,96620.59
2023-02-23T01:13:57.611Z,96617.03
2023-02-23T01:16:30.750Z,96612.72
2023-02-23T01:18:59.574Z,96612.72
2023-02-23T01:21:32.250Z,96617.44
2023-02-23T01:23:59.074Z,96616.69
2023-02-23T01:26:28.997Z,96618.97
2023-02-23T01:28:58.882Z,96623.59
2023-02-23T01:31:26.285Z,96606.34
2023-02-23T01:34:03.634Z,96607.41
2023-02-23T01:36:35.169Z,96616.00
2023-02-23T01:39:02.565Z,96616.00
2023-02-23T01:41:33.039Z,96612.75
2023-02-23T01:44:01.330Z,96612.00
2023-02-23T01:46:32.226Z,96614.94
2023-02-23T01:48:59.793Z,96617.00
2023-02-23T01:51:30.729Z,96610.81
2023-02-23T01:54:05.501Z,96599.38
2023-02-23T01:56:36.674Z,96613.25
2023-02-23T01:59:07.809Z,96608.84
2023-02-23T02:01:35.048Z,96611.16
2023-02-23T02:04:06.814Z,96598.97
2023-02-23T02:06:36.416Z,96609.56
2023-02-23T02:09:08.225Z,96603.47
2023-02-23T02:11:39.318Z,96608.72
2023-02-23T02:14:23.994Z,96609.56
2023-02-23T02:17:02.502Z,96603.16
2023-02-23T02:19:40.845Z,96590.91
2023-02-23T02:22:19.638Z,96591.66
2023-02-23T02:24:58.665Z,96584.53
2023-02-23T02:28:08.692Z,96591.34
2023-02-23T02:30:56.775Z,96595.56
2023-02-23T02:33:32.368Z,96587.97
2023-02-23T02:36:13.978Z,96585.34
2023-02-23T02:39:10.508Z,96582.00
2023-02-23T02:41:53.338Z,96581.91
2023-02-23T02:44:22.823Z,96586.19
2023-02-23T02:46:58.206Z,96586.19
2023-02-23T02:49:29.983Z,96580.00
2023-02-23T02:52:17.738Z,96581.16
2023-02-23T02:54:53.392Z,96579.28
2023-02-23T02:57:25.134Z,96577.38
2023-02-23T03:00:10.613Z,96573.63
2023-02-23T03:02:58.934Z,96576.25
2023-02-23T03:05:53.294Z,96570.06
2023-02-23T03:08:47.185Z,96570.06
2023-02-23T03:11:34.009Z,96568.72
2023-02-23T03:14:48.413Z,96577.31
2023-02-23T03:18:15.859Z,96570.91
2023-02-23T03:21:12.710Z,96566.31
2023-02-23T03:24:06.469Z,96573.66
2023-02-23T03:26:54.694Z,96580.78
2023-02-23T03:29:58.848Z,96580.91
2023-02-23T03:32:54.290Z,96576.59
2023-02-23T03:36:01.519Z,96577.53
2023-02-23T03:38:49.709Z,96571.84
2023-02-23T03:41:38.842Z,96577.13
2023-02-23T03:44:33.818Z,96579.00
2023-02-23T03:47:20.475Z,96583.31
2023-02-23T03:50:08.801Z,96586.16
2023-02-23T03:53:04.480Z,96579.22
2023-02-23T03:55:56.697Z,96573.97
2023-02-23T03:58:49.903Z,96573.75
2023-02-23T04:01:38.900Z,96579.84
2023-02-23T04:04:27.711Z,96581.41
2023-02-23T04:07:17.163Z,96581.97
2023-02-23T04:10:02.968Z,96584.47
2023-02-23T04:13:14.941Z,96588.06
2023-02-23T04:15:49.195Z,96587.94
2023-02-23T04:18:21.384Z,96582.59
2023-02-23T04:20:48.078Z,96588.69
2023-02-23T04:23:14.745Z,96589.72
2023-02-23T04:25:41.401Z,96594.88
2023-02-23T04:28:07.999Z,96591.31
2023-02-23T04:30:34.743Z,96588.88
2023-02-23T04:33:01.337Z,96588.88
2023-02-23T04:35:29.934Z,96591.50
2023-02-23T04:37:56.886Z,96600.56
2023-02-23T04:40:24.386Z,96597.94
2023-02-23T04:42:51.272Z,96593.91
2023-02-23T04:45:18.224Z,96606.41
2023-02-23T04:47:44.953Z,96603.56
2023-02-23T04:50:12.558Z,96593.81
2023-02-23T04:52:39.733Z,96591.19
2023-02-23T04:55:08.444Z,96600.75
2023-02-23T04:57:35.614Z,96593.81
2023-02-23T05:00:04.411Z,96594.66
2023-02-23T05:02:32.210Z,96594.47
2023-02-23T05:04:58.875Z,96602.22
2023-02-23T05:07:25.552Z,96597.94
2023-02-23T05:09:52.158Z,96597.81
2023-02-23T05:12:18.895Z,96595.31
2023-02-23T05:14:45.453Z,96590.78
2023-02-23T05:17:12.229Z,96597.72
2023-02-23T05:19:38.799Z,96594.16
2023-02-23T05:22:05.473Z,96596.78
2023-02-23T05:24:32.043Z,96594.03
2023-02-23T05:26:59.003Z,96602.66
2023-02-23T05:29:25.590Z,96602.66
2023-02-23T05:31:52.314Z,96600.03
2023-02-23T05:34:18.964Z,96601.06
2023-02-23T05:36:45.542Z,96602.13
2023-02-23T05:39:12.163Z,96594.25
2023-02-23T05:41:38.899Z,96601.19
2023-02-23T05:44:05.556Z,96605.38
2023-02-23T05:46:32.322Z,96610.00
2023-02-23T05:49:00.944Z,96598.56
2023-02-23T05:51:29.688Z,96611.56
2023-02-23T05:53:56.361Z,96607.91
2023-02-23T05:56:23.378Z,96608.66
2023-02-23T05:58:52.604Z,96606.78
2023-02-23T06:01:19.821Z,96610.22
2023-02-23T06:03:48.238Z,96615.59
2023-02-23T06:06:15.517Z,96616.22
2023-02-23T06:08:42.627Z,96606.44
2023-02-23T06:11:09.837Z,96610.53
2023-02-23T06:13:36.469Z,96611.47
2023-02-23T06:16:03.401Z,96612.13
2023-02-23T06:18:30.591Z,96613.16
2023-02-23T06:21:01.093Z,96615.47
2023-02-23T06:23:28.712Z,96622.19
2023-02-23T06:25:55.357Z,96616.88
2023-02-23T06:28:21.990Z,96628.94
2023-02-23T06:30:52.041Z,96628.94
2023-02-23T06:33:18.986Z,96625.38
2023-02-23T06:35:46.520Z,96632.31
2023-02-23T06:38:13.204Z,96633.97
2023-02-23T06:40:40.316Z,96628.94
2023-02-23T06:43:07.276Z,96627.06
2023-02-23T06:45:34.068Z,96634.81
2023-02-23T06:48:01.049Z,96632.09
2023-02-23T06:50:28.977Z,96643.47
2023-02-23T06:52:57.551Z,96639.91
2023-02-23T06:55:24.520Z,96641.69
2023-02-23T06:57:52.414Z,96647.66
2023-02-23T07:00:19.460Z,96649.13
2023-02-23T07:02:46.267Z,96651.75
2023-02-23T07:05:12.846Z,96644.72
2023-02-23T07:07:39.569Z,96647.28
2023-02-23T07:10:07.240Z,96648.94
2023-02-23T07:12:33.881Z,96656.41
2023-02-23T07:15:00.577Z,96658.94
2023-02-23T07:17:27.169Z,96663.97
2023-02-23T07:19:53.887Z,96667.34
2023-02-23T07:22:20.551Z,96668.72
2023-02-23T07:24:47.700Z,96676.03
2023-02-23T07:27:14.326Z,96678.31
2023-02-23T07:29:40.903Z,96679.59
2023-02-23T07:32:07.591Z,96676.06
2023-02-23T07:34:34.229Z,96679.53
2023-02-23T07:37:00.824Z,96679.19
2023-02-23T07:39:27.573Z,96684.47
2023-02-23T07:41:54.139Z,96688.75
2023-02-23T07:44:21.797Z,96680.44
2023-02-23T07:46:48.549Z,96685.81
2023-02-23T07:49:15.388Z,96689.41
2023-02-23T07:51:42.072Z,96687.59
2023-02-23T07:54:08.673Z,96694.78
2023-02-23T07:56:35.581Z,96688.25
2023-02-23T07:59:03.030Z,96702.53
2023-02-23T08:01:29.886Z,96700.34
2023-02-23T08:03:56.623Z,96697.28
2023-02-23T08:06:23.319Z,96700.66
2023-02-23T08:08:49.906Z,96703.38
2023-02-23T08:11:16.738Z,96695.47
2023-02-23T08:13:43.631Z,96709.56
2023-02-23T08:16:12.441Z,96704.31
2023-02-23T08:18:39.233Z,96699.38
2023-02-23T08:21:06.086Z,96704.63
2023-02-23T08:23:33.707Z,96700.84
2023-02-23T08:26:01.432Z,96699.50
2023-02-23T08:28:28.758Z,96698.75
2023-02-23T08:30:55.408Z,96701.59
2023-02-23T08:33:22.506Z,96705.94
2023-02-23T08:35:49.102Z,96702.88
2023-02-23T08:38:16.593Z,96703.81
2023-02-23T08:40:43.462Z,96706.75
2023-02-23T08:43:10.358Z,96706.53
2023-02-23T08:45:38.669Z,96701.47
2023-02-23T08:48:07.027Z,96707.94
2023-02-23T08:50:33.638Z,96714.75
2023-02-23T08:53:00.239Z,96716.03
2023-02-23T08:55:26.931Z,96712.84
2023-02-23T08:57:53.613Z,96715.91
2023-02-23T09:00:20.806Z,96722.22
2023-02-23T09:02:48.389Z,96719.81
2023-02-23T09:05:15.868Z,96716.97
2023-02-23T09:07:45.189Z,96722.41
2023-02-23T09:10:17.420Z,96719.91
2023-02-23T09:12:43.994Z,96724.53
2023-02-23T09:15:11.509Z,96725.66
2023-02-23T09:17:38.595Z,96724.72
2023-02-23T09:20:05.996Z,96731.25
2023-02-23T09:22:32.804Z,96728.75
2023-02-23T09:24:59.450Z,96734.63
2023-02-23T09:27:26.176Z,96731.25
2023-02-23T09:29:52.775Z,96734.53
2023-02-23T09:32:19.520Z,96742.00
2023-02-23T09:34:47.605Z,96742.72
2023-02-23T09:37:14.784Z,96733.81
2023-02-23T09:39:41.504Z,96746.72
2023-02-23T09:42:14.007Z,96744.00
2023-02-23T09:44:56.104Z,96746.59
2023-02-23T09:47:54.525Z,96743.34
2023-02-23T09:50:24.848Z,96750.41
2023-02-23T09:52:58.597Z,96749.25
2023-02-23T09:55:26.538Z,96753.63
2023-02-23T09:57:57.068Z,96755.13
2023-02-23T10:00:27.409Z,96759.03
2023-02-23T10:03:08.527Z,96762.84
2023-02-23T10:05:43.947Z,96763.25
2023-02-23T10:08:55.168Z,96765.47
2023-02-23T10:11:43.838Z,96761.78
2023-02-23T10:14:30.446Z,96766.00
2023-02-23T10:17:15.541Z,96770.19
2023-02-23T10:19:58.932Z,96778.09
2023-02-23T10:22:27.440Z,96777.13
2023-02-23T10:25:03.329Z,96776.28
2023-02-23T10:27:38.084Z,96781.78
2023-02-23T10:30:17.738Z,96775.84
2023-02-23T10:32:59.152Z,96775.56
2023-02-23T10:35:29.249Z,96772.56
2023-02-23T10:37:57.428Z,96776.06
2023-02-23T10:40:32.248Z,96779.16
2023-02-23T10:43:01.215Z,96788.25
2023-02-23T10:45:29.354Z,96791.09
2023-02-23T10:48:04.154Z,96786.25
2023-02-23T10:50:32.496Z,96787.00
2023-02-23T10:53:23.313Z,96788.56
2023-02-23T10:56:16.600Z,96790.69
2023-02-23T10:58:48.301Z,96787.63
2023-02-23T11:01:18.257Z,96790.91
2023-02-23T11:03:57.574Z,96786.28
2023-02-23T11:06:31.261Z,96796.06
2023-02-23T11:08:58.155Z,96795.31
2023-02-23T11:11:28.784Z,96794.13
2023-02-23T11:13:57.192Z,96800.63
2023-02-23T11:16:37.525Z,96794.53
2023-02-23T11:19:07.527Z,96800.22
2023-02-23T11:21:38.772Z,96798.91
2023-02-23T11:24:30.820Z,96793.84
2023-02-23T11:27:03.618Z,96787.88
2023-02-23T11:29:37.931Z,96794.28
2023-02-23T11:32:20.741Z,96787.38
2023-02-23T11:34:49.441Z,96782.59
2023-02-23T11:37:23.349Z,96787.88
2023-02-23T11:39:55.782Z,96782.91
2023-02-23T11:42:25.502Z,96775.50
2023-02-23T11:45:14.649Z,96775.84
2023-02-23T11:47:48.239Z,96772.22
2023-02-23T11:50:35.552Z,96770.00
2023-02-23T11:53:35.118Z,96770.78
2023-02-23T11:56:08.124Z,96763.69
2023-02-23T11:58:45.505Z,96766.25
2023-02-23T12:01:16.972Z,96762.28
2023-02-23T12:03:49.521Z,96763.50
2023-02-23T12:06:35.621Z,96756.03
2023-02-23T12:09:28.228Z,96771.06
2023-02-23T12:12:07.421Z,96768.78
2023-02-23T12:14:40.911Z,96771.13
2023-02-23T12:17:25.424Z,96754.97
2023-02-23T12:20:20.274Z,96752.84
2023-02-23T12:22:51.418Z,96758.44
2023-02-23T12:25:29.848Z,96756.09
2023-02-23T12:28:32.160Z,96754.91
2023-02-23T12:31:04.684Z,96754.81
2023-02-23T12:33:44.127Z,96750.97
2023-02-23T12:36:43.030Z,96753.63
2023-02-23T12:39:22.243Z,96752.31
2023-02-23T12:41:59.305Z,96744.94
2023-02-23T12:44:34.980Z,96740.56
2023-02-23T12:47:26.975Z,96747.16
2023-02-23T12:50:13.864Z,96750.66
2023-02-23T12:52:49.446Z,96742.78
2023-02-23T12:55:18.884Z,96738.34
2023-02-23T12:58:03.861Z,96739.69
2023-02-23T13:00:58.202Z,96745.13
2023-02-23T13:03:30.336Z,96749.28
2023-02-23T13:06:17.774Z,96745.09
2023-02-23T13:09:08.074Z,96739.63
2023-02-23T13:12:01.994Z,96740.31
2023-02-23T13:14:46.893Z,96733.94
2023-02-23T13:17:31.786Z,96734.94
2023-02-23T13:20:22.596Z,96729.97
2023-02-23T13:22:57.984Z,96735.75
2023-02-23T13:25:42.534Z,96742.78
2023-02-23T13:28:18.446Z,96739.41
2023-02-23T13:30:47.578Z,96732.50
2023-02-23T13:33:43.950Z,96743.63
2023-02-23T13:36:12.938Z,96736.00
2023-02-23T13:39:19.156Z,96741.91
2023-02-23T13:42:09.807Z,96741.50
2023-02-23T13:44:59.375Z,96740.94
2023-02-23T13:47:45.510Z,96739.91
2023-02-23T13:50:47.020Z,96746.13
2023-02-23T13:53:28.616Z,96745.94
2023-02-23T13:56:01.766Z,96744.91
2023-02-23T13:58:31.187Z,96743.00
2023-02-23T14:01:30.699Z,96748.25
2023-02-23T14:04:00.717Z,96739.56
2023-02-23T14:06:30.119Z,96738.97
2023-02-23T14:09:25.485Z,96750.22
2023-02-23T14:11:57.438Z,96748.31
2023-02-23T14:14:33.231Z,96752.34
2023-02-23T14:17:15.087Z,96745.63
2023-02-23T14:20:13.350Z,96751.19
2023-02-23T14:23:26.520Z,96753.53
2023-02-23T14:26:32.972Z,96760.81
2023-02-23T14:29:25.516Z,96761.34
2023-02-23T14:32:24.721Z,96763.78
2023-02-23T14:34:59.532Z,96761.66
2023-02-23T14:37:37.021Z,96755.25
2023-02-23T14:40:09.666Z,96757.38
2023-02-23T14:42:39.142Z,96750.94
2023-02-23T14:45:19.533Z,96762.31
2023-02-23T14:47:48.697Z,96756.09
2023-02-23T14:50:25.737Z,96763.56
2023-02-23T14:52:55.305Z,96756.63
2023-02-23T14:55:29.197Z,96756.44
2023-02-23T14:57:57.136Z,96757.97
2023-02-23T15:00:32.414Z,96757.03
2023-02-23T15:03:09.341Z,96761.97
2023-02-23T15:05:42.317Z,96760.06
2023-02-23T15:08:15.366Z,96761.63
2023-02-23T15:10:44.141Z,96758.56
2023-02-23T15:13:40.096Z,96758.56
2023-02-23T15:16:08.165Z,96770.22
2023-02-23T15:19:35.347Z,96772.94
2023-02-23T15:22:04.553Z,96774.34
2023-02-23T15:24:42.942Z,96777.59
2023-02-23T15:27:18.411Z,96770.66
2023-02-23T15:29:45.076Z,96776.13
2023-02-23T15:32:23.499Z,96776.50
2023-02-23T15:34:52.102Z,96772.66
2023-02-23T15:40:18.193Z,96766.91
2023-02-23T15:42:56.823Z,96766.34
2023-02-23T15:45:40.317Z,96770.47
2023-02-23T15:48:17.385Z,96765.94
2023-02-23T15:50:53.254Z,96774.66
2023-02-23T15:53:29.006Z,96773.47
2023-02-23T15:56:00.874Z,96773.03
2023-02-23T15:58:31.771Z,96776.59
2023-02-23T16:01:06.123Z,96774.47
2023-02-23T16:03:35.864Z,96782.66
2023-02-23T16:06:17.475Z,96779.00
2023-02-23T16:09:21.058Z,96788.09
2023-02-23T16:12:03.242Z,96793.44
2023-02-23T16:14:45.984Z,96793.66
2023-02-23T16:17:29.015Z,96792.03
2023-02-23T16:20:36.852Z,96795.59
2023-02-23T16:23:05.402Z,96795.06
2023-02-23T16:25:33.871Z,96787.38
2023-02-23T16:28:08.915Z,96788.53
2023-02-23T16:30:43.774Z,96794.72
2023-02-23T16:33:20.710Z,96790.31
2023-02-23T16:35:50.606Z,96790.84
2023-02-23T16:38:33.668Z,96791.88
2023-02-23T16:41:02.292Z,96788.16
2023-02-23T16:43:31.664Z,96788.91
2023-02-23T16:45:58.536Z,96789.09
2023-02-23T16:48:25.173Z,96786.13
2023-02-23T16:50:51.846Z,96793.25
2023-02-23T16:53:18.580Z,96790.69
2023-02-23T16:55:53.857Z,96794.47
2023-02-23T16:58:24.693Z,96792.09
2023-02-23T17:00:52.669Z,96801.59
2023-02-23T17:03:24.288Z,96806.00
2023-02-23T17:05:51.983Z,96810.41
2023-02-23T17:08:18.745Z,96804.78
2023-02-23T17:10:51.535Z,96811.81
2023-02-23T17:13:23.740Z,96810.78
2023-02-23T17:15:53.963Z,96813.88
2023-02-23T17:18:25.803Z,96821.81
2023-02-23T17:20:54.258Z,96813.59
2023-02-23T17:23:23.134Z,96820.47
2023-02-23T17:25:49.758Z,96826.78
2023-02-23T17:28:17.095Z,96825.28
2023-02-23T17:30:44.906Z,96827.22
2023-02-23T17:33:11.723Z,96837.91
2023-02-23T17:35:38.881Z,96834.25
2023-02-23T17:38:07.643Z,96840.44
2023-02-23T17:40:36.546Z,96835.81
2023-02-23T17:43:07.417Z,96834.41
2023-02-23T17:45:34.440Z,96824.09
2023-02-23T17:48:01.289Z,96827.06
2023-02-23T17:50:28.352Z,96835.38
2023-02-23T17:52:55.889Z,96826.50
2023-02-23T17:55:23.935Z,96831.91
2023-02-23T17:57:50.846Z,96822.47
2023-02-23T18:00:19.235Z,96826.03
2023-02-23T18:02:46.581Z,96820.94
2023-02-23T18:05:14.209Z,96819.34
2023-02-23T18:07:41.777Z,96817.31
2023-02-23T18:10:09.863Z,96813.91
2023-02-23T18:12:36.881Z,96821.13
2023-02-23T18:15:04.679Z,96819.63
2023-02-23T18:17:33.933Z,96814.38
2023-02-23T18:20:00.989Z,96824.19
2023-02-23T18:22:27.591Z,96819.94
2023-02-23T18:24:55.046Z,96819.94
2023-02-23T18:27:23.629Z,96824.50
2023-02-23T18:29:50.599Z,96824.50
2023-02-23T18:32:17.377Z,96825.09
2023-02-23T18:34:44.556Z,96818.50
2023-02-23T18:37:11.287Z,96821.13
2023-02-23T18:39:38.081Z,96824.34
2023-02-23T18:42:05.108Z,96818.31
2023-02-23T18:44:34.078Z,96831.16
2023-02-23T18:47:02.463Z,96827.91
2023-02-23T18:49:29.107Z,96822.66
2023-02-23T18:51:55.864Z,96825.09
2023-02-23T18:54:22.530Z,96823.31
2023-02-23T18:56:49.590Z,96815.53
2023-02-23T18:59:16.332Z,96816.38
2023-02-23T19:01:46.658Z,96821.78
2023-02-23T19:04:13.549Z,96829.38
2023-02-23T19:06:44.074Z,96817.41
2023-02-23T19:09:13.296Z,96817.31
2023-02-23T19:11:42.098Z,96813.66
2023-02-23T19:14:13.138Z,96818.50
2023-02-23T19:16:41.231Z,96818.41
2023-02-23T19:19:09.033Z,96820.47
2023-02-23T19:21:37.448Z,96812.78
2023-02-23T19:24:05.012Z,96810.75
2023-02-23T19:26:33.736Z,96820.19
2023-02-23T19:29:01.016Z,96815.22
2023-02-23T19:31:28.499Z,96820.47
2023-02-23T19:33:57.029Z,96816.06
2023-02-23T19:36:30.015Z,96814.72
2023-02-23T19:39:06.043Z,96816.31
2023-02-23T19:41:34.354Z,96817.25
2023-02-23T19:44:01.994Z,96822.50
2023-02-23T19:46:29.322Z,96821.97
2023-02-23T19:48:56.775Z,96815.66
2023-02-23T19:51:24.041Z,96814.38
2023-02-23T19:53:56.571Z,96813.19
2023-02-23T19:56:25.189Z,96813.56
2023-02-23T19:58:52.428Z,96822.09
2023-02-23T20:01:22.233Z,96815.25
2023-02-23T20:03:57.910Z,96821.34
2023-02-23T20:06:27.520Z,96819.75
2023-02-23T20:08:55.185Z,96823.38
2023-02-23T20:11:22.689Z,96821.53
2023-02-23T20:13:51.319Z,96832.06
2023-02-23T20:16:18.798Z,96834.88
2023-02-23T20:18:46.072Z,96831.91
2023-02-23T20:21:19.457Z,96840.13
2023-02-23T20:23:47.477Z,96830.38
2023-02-23T20:26:17.695Z,96841.97
2023-02-23T20:28:45.573Z,96846.09
2023-02-23T20:31:15.637Z,96839.44
2023-02-23T20:33:42.723Z,96846.69
2023-02-23T20:36:12.099Z,96844.66
2023-02-23T20:38:39.356Z,96844.41
2023-02-23T20:41:06.181Z,96838.34
2023-02-23T20:43:33.135Z,96844.69
2023-02-23T20:46:01.056Z,96848.91
2023-02-23T20:48:32.807Z,96842.91
2023-02-23T20:51:01.588Z,96847.38
2023-02-23T20:53:29.192Z,96848.31
2023-02-23T20:55:56.395Z,96843.84
2023-02-23T20:58:26.142Z,96846.94
2023-02-23T21:01:04.905Z,96841.78
2023-02-23T21:03:32.093Z,96840.13
2023-02-23T21:05:59.432Z,96844.25
2023-02-23T21:08:26.043Z,96835.19
2023-02-23T21:10:52.603Z,96840.84
2023-02-23T21:13:19.225Z,96835.22
2023-02-23T21:15:46.235Z,96835.81
2023-02-23T21:18:12.951Z,96828.88
2023-02-23T21:20:39.979Z,96833.44
2023-02-23T21:23:08.280Z,96837.16
2023-02-23T21:25:35.300Z,96839.97
2023-02-23T21:28:02.203Z,96834.13
2023-02-23T21:30:29.832Z,96828.81
2023-02-23T21:32:57.723Z,96830.16
2023-02-23T21:35:24.437Z,96824.19
2023-02-23T21:37:51.808Z,96828.47
2023-02-23T21:40:20.929Z,96835.16
2023-02-23T21:42:48.557Z,96838.53
2023-02-23T21:45:15.693Z,96828.56
2023-02-23T21:47:44.660Z,96829.31
2023-02-23T21:50:14.844Z,96831.00
2023-02-23T21:52:46.875Z,96825.69
2023-02-23T21:55:21.452Z,96822.72
2023-02-23T21:57:49.113Z,96830.84
2023-02-23T22:00:16.373Z,96824.19
2023-02-23T22:02:46.412Z,96822.56
2023-02-23T22:05:15.116Z,96830.34
2023-02-23T22:07:46.813Z,96823.41
2023-02-23T22:10:13.382Z,96823.75
2023-02-23T22:12:39.934Z,96824.25
2023-02-23T22:15:07.281Z,96828.22
2023-02-23T22:17:34.288Z,96827.22
2023-02-23T22:20:01.491Z,96818.69
2023-02-23T22:22:28.393Z,96824.88
2023-02-23T22:24:54.995Z,96823.47
2023-02-23T22:27:22.205Z,96824.22
2023-02-23T22:29:48.906Z,96813.66
2023-02-23T22:32:17.532Z,96812.66
2023-02-23T22:34:44.368Z,96805.81
2023-02-23T22:37:11.033Z,96811.31
2023-02-23T22:39:41.686Z,96807.88
2023-02-23T22:42:12.757Z,96814.00
2023-02-23T22:44:39.652Z,96807.78
2023-02-23T22:47:07.361Z,96813.75
2023-02-23T22:49:34.712Z,96811.38
2023-02-23T22:52:01.444Z,96805.25
2023-02-23T22:54:28.069Z,96806.84
2023-02-23T22:56:54.907Z,96806.00
2023-02-23T22:59:21.566Z,96803.47
2023-02-23T23:01:50.168Z,96799.31
2023-02-23T23:04:17.216Z,96795.94
2023-02-23T23:06:44.027Z,96786.94
2023-02-23T23:09:12.194Z,96788.75
2023-02-23T23:11:41.765Z,96784.38
2023-02-23T23:14:10.443Z,96785.72
2023-02-23T23:16:47.592Z,96786.31
2023-02-23T23:19:18.959Z,96778.81
2023-02-23T23:21:46.283Z,96775.66
2023-02-23T23:24:13.654Z,96772.22
2023-02-23T23:26:40.407Z,96775.00
2023-02-23T23:29:10.225Z,96770.63
2023-02-23T23:31:38.569Z,96769.03
2023-02-23T23:34:09.616Z,96766.66
2023-02-23T23:36:43.086Z,96753.31
2023-02-23T23:39:12.127Z,96753.47
2023-02-23T23:41:39.595Z,96749.03
2023-02-23T23:44:06.780Z,96745.72
2023-02-23T23:46:37.472Z,96742.16
2023-02-23T23:49:08.127Z,96738.72
2023-02-23T23:51:38.908Z,96737.03
2023-02-23T23:54:09.711Z,96728.00
2023-02-23T23:56:39.676Z,96731.38
2023-02-23T23:59:12.886Z,96732.31
